createdAt,value
2023-03-06T00:01:56.247Z,2.84
2023-03-06T00:04:22.983Z,2.88
2023-03-06T00:06:49.672Z,2.89
2023-03-06T00:09:16.366Z,2.91
2023-03-06T00:11:42.909Z,2.88
2023-03-06T00:14:09.500Z,2.88
2023-03-06T00:16:36.165Z,2.83
2023-03-06T00:19:02.836Z,2.93
2023-03-06T00:21:29.405Z,2.97
2023-03-06T00:23:55.931Z,2.91
2023-03-06T00:26:22.512Z,2.87
2023-03-06T00:28:49.593Z,2.88
2023-03-06T00:31:16.824Z,2.89
2023-03-06T00:33:43.642Z,2.85
2023-03-06T00:36:10.794Z,2.85
2023-03-06T00:38:37.624Z,2.84
2023-03-06T00:41:11.724Z,2.85
2023-03-06T00:43:38.809Z,2.90
2023-03-06T00:46:07.625Z,2.96
2023-03-06T00:48:34.729Z,2.88
2023-03-06T00:51:01.524Z,2.82
2023-03-06T00:53:28.195Z,2.83
2023-03-06T00:55:54.921Z,2.82
2023-03-06T00:58:22.101Z,2.88
2023-03-06T01:00:48.883Z,2.83
2023-03-06T01:03:15.619Z,2.89
2023-03-06T01:05:42.596Z,2.86
2023-03-06T01:08:09.157Z,2.77
2023-03-06T01:10:40.891Z,2.69
2023-03-06T01:13:09.077Z,2.69
2023-03-06T01:15:36.078Z,2.68
2023-03-06T01:18:02.865Z,2.67
2023-03-06T01:20:29.756Z,2.61
2023-03-06T01:22:56.874Z,2.65
2023-03-06T01:25:24.994Z,2.65
2023-03-06T01:27:52.000Z,2.71
2023-03-06T01:30:19.631Z,2.64
2023-03-06T01:32:46.757Z,2.66
2023-03-06T01:35:14.487Z,2.69
2023-03-06T01:37:41.396Z,2.67
2023-03-06T01:40:10.687Z,2.60
2023-03-06T01:42:38.053Z,2.63
2023-03-06T01:45:11.318Z,2.53
2023-03-06T01:47:38.047Z,2.60
2023-03-06T01:50:09.676Z,2.56
2023-03-06T01:52:42.380Z,2.56
2023-03-06T01:55:13.950Z,2.57
2023-03-06T01:57:47.000Z,2.54
2023-03-06T02:00:17.639Z,2.54
2023-03-06T02:02:50.091Z,2.58
2023-03-06T02:05:16.745Z,2.52
2023-03-06T02:07:44.735Z,2.56
2023-03-06T02:10:14.177Z,2.56
2023-03-06T02:12:43.762Z,2.63
2023-03-06T02:15:15.900Z,2.53
2023-03-06T02:17:44.306Z,2.54
2023-03-06T02:20:32.505Z,2.49
2023-03-06T02:23:11.164Z,2.50
2023-03-06T02:25:42.068Z,2.44
2023-03-06T02:28:13.501Z,2.45
2023-03-06T02:30:42.829Z,2.38
2023-03-06T02:33:14.809Z,2.37
2023-03-06T02:35:47.325Z,2.44
2023-03-06T02:38:15.620Z,2.34
2023-03-06T02:40:44.588Z,2.42
2023-03-06T02:43:12.458Z,2.44
2023-03-06T02:45:45.265Z,2.35
2023-03-06T02:48:13.503Z,2.36
2023-03-06T02:50:41.847Z,2.31
2023-03-06T02:53:11.077Z,2.30
2023-03-06T02:55:38.040Z,2.27
2023-03-06T02:58:04.938Z,2.27
2023-03-06T03:00:32.557Z,2.24
2023-03-06T03:03:01.121Z,2.18
2023-03-06T03:05:27.789Z,2.27
2023-03-06T03:07:59.972Z,2.22
2023-03-06T03:10:27.506Z,2.31
2023-03-06T03:12:54.174Z,2.22
2023-03-06T03:15:21.077Z,2.34
2023-03-06T03:17:47.635Z,2.12
2023-03-06T03:20:18.568Z,2.04
2023-03-06T03:22:49.877Z,2.22
2023-03-06T03:25:17.193Z,2.20
2023-03-06T03:27:44.580Z,2.21
2023-03-06T03:30:12.532Z,2.22
2023-03-06T03:32:39.410Z,2.21
2023-03-06T03:35:08.240Z,2.18
2023-03-06T03:37:36.500Z,2.26
2023-03-06T03:40:06.523Z,2.16
2023-03-06T03:42:34.509Z,2.24
2023-03-06T03:45:01.317Z,2.15
2023-03-06T03:47:28.123Z,2.04
2023-03-06T03:49:54.786Z,2.05
2023-03-06T03:52:21.713Z,2.13
2023-03-06T03:54:48.406Z,2.00
2023-03-06T03:57:15.085Z,1.98
2023-03-06T03:59:47.346Z,1.91
2023-03-06T04:02:24.237Z,1.92
2023-03-06T04:04:58.510Z,1.97
2023-03-06T04:07:25.506Z,1.95
2023-03-06T04:09:52.330Z,2.05
2023-03-06T04:12:19.126Z,2.01
2023-03-06T04:14:46.479Z,2.11
2023-03-06T04:17:13.364Z,2.15
2023-03-06T04:19:39.964Z,2.23
2023-03-06T04:22:06.596Z,2.18
2023-03-06T04:24:35.698Z,2.09
2023-03-06T04:27:02.780Z,2.08
2023-03-06T04:29:29.436Z,2.03
2023-03-06T04:31:56.735Z,2.02
2023-03-06T04:34:23.569Z,2.01
2023-03-06T04:36:50.826Z,2.02
2023-03-06T04:39:18.223Z,2.02
2023-03-06T04:41:44.843Z,2.04
2023-03-06T04:44:11.786Z,1.92
2023-03-06T04:46:38.712Z,1.99
2023-03-06T04:49:05.452Z,1.88
2023-03-06T04:51:32.069Z,1.95
2023-03-06T04:53:58.635Z,1.98
2023-03-06T04:56:25.266Z,1.94
2023-03-06T04:58:51.947Z,1.94
2023-03-06T05:01:18.677Z,1.94
2023-03-06T05:03:45.462Z,1.96
2023-03-06T05:06:12.460Z,1.93
2023-03-06T05:08:39.268Z,2.00
2023-03-06T05:11:06.027Z,2.09
2023-03-06T05:13:32.714Z,2.01
2023-03-06T05:16:04.456Z,1.99
2023-03-06T05:18:32.197Z,1.99
2023-03-06T05:21:00.032Z,1.94
2023-03-06T05:23:28.517Z,1.96
2023-03-06T05:25:55.281Z,2.02
2023-03-06T05:28:22.017Z,1.99
2023-03-06T05:30:49.094Z,2.03
2023-03-06T05:33:15.812Z,2.01
2023-03-06T05:35:47.542Z,1.99
2023-03-06T05:38:15.131Z,2.01
2023-03-06T05:40:42.864Z,1.97
2023-03-06T05:43:10.529Z,2.02
2023-03-06T05:45:38.511Z,1.92
2023-03-06T05:48:05.773Z,1.99
2023-03-06T05:50:32.723Z,1.95
2023-03-06T05:52:59.613Z,1.95
2023-03-06T05:55:26.195Z,1.89
2023-03-06T05:57:54.124Z,1.90
2023-03-06T06:00:21.468Z,1.80
2023-03-06T06:02:48.239Z,1.87
2023-03-06T06:05:14.873Z,1.80
2023-03-06T06:07:41.615Z,1.84
2023-03-06T06:10:08.970Z,1.79
2023-03-06T06:12:35.784Z,1.76
2023-03-06T06:15:02.695Z,1.75
2023-03-06T06:17:29.427Z,1.66
2023-03-06T06:19:56.085Z,1.75
2023-03-06T06:22:22.673Z,1.76
2023-03-06T06:24:49.458Z,1.76
2023-03-06T06:27:16.306Z,1.75
2023-03-06T06:29:42.891Z,1.82
2023-03-06T06:32:09.569Z,1.80
2023-03-06T06:34:36.143Z,1.86
2023-03-06T06:37:02.838Z,1.84
2023-03-06T06:39:29.853Z,1.89
2023-03-06T06:42:10.003Z,1.84
2023-03-06T06:44:43.552Z,1.88
2023-03-06T06:47:26.249Z,1.83
2023-03-06T06:49:54.923Z,1.85
2023-03-06T06:52:23.200Z,1.93
2023-03-06T06:54:49.921Z,1.94
2023-03-06T06:57:16.622Z,1.98
2023-03-06T06:59:43.279Z,1.92
2023-03-06T07:02:14.575Z,1.90
2023-03-06T07:04:56.135Z,1.97
2023-03-06T07:07:27.400Z,1.91
2023-03-06T07:09:55.428Z,1.92
2023-03-06T07:12:22.043Z,1.93
2023-03-06T07:14:48.649Z,1.88
2023-03-06T07:17:15.293Z,1.93
2023-03-06T07:19:41.849Z,1.91
2023-03-06T07:22:08.664Z,2.03
2023-03-06T07:24:35.439Z,1.94
2023-03-06T07:27:02.039Z,2.05
2023-03-06T07:29:29.380Z,2.01
2023-03-06T07:31:56.112Z,2.04
2023-03-06T07:34:22.985Z,2.14
2023-03-06T07:36:50.927Z,2.10
2023-03-06T07:39:17.533Z,2.12
2023-03-06T07:41:44.117Z,2.27
2023-03-06T07:44:10.964Z,2.22
2023-03-06T07:46:37.823Z,2.16
2023-03-06T07:49:04.492Z,2.20
2023-03-06T07:51:31.176Z,2.25
2023-03-06T07:53:57.841Z,2.23
2023-03-06T07:56:24.517Z,2.15
2023-03-06T07:58:51.126Z,2.26
2023-03-06T08:01:20.527Z,2.31
2023-03-06T08:03:50.170Z,2.30
2023-03-06T08:06:22.949Z,2.31
2023-03-06T08:08:50.841Z,2.44
2023-03-06T08:11:20.080Z,2.40
2023-03-06T08:13:48.867Z,2.46
2023-03-06T08:16:17.449Z,2.41
2023-03-06T08:18:46.253Z,2.37
2023-03-06T08:21:15.679Z,2.39
2023-03-06T08:23:42.599Z,2.53
2023-03-06T08:26:13.401Z,2.44
2023-03-06T08:28:40.597Z,2.46
2023-03-06T08:31:23.185Z,2.41
2023-03-06T08:33:50.390Z,2.51
2023-03-06T08:36:17.058Z,2.56
2023-03-06T08:38:43.773Z,2.51
2023-03-06T08:41:10.566Z,2.53
2023-03-06T08:43:37.287Z,2.55
2023-03-06T08:46:04.165Z,2.65
2023-03-06T08:48:31.067Z,2.72
2023-03-06T08:50:58.034Z,2.77
2023-03-06T08:53:40.331Z,2.91
2023-03-06T08:56:15.573Z,2.97
2023-03-06T08:58:42.366Z,2.99
2023-03-06T09:01:22.477Z,2.99
2023-03-06T09:03:49.799Z,3.09
2023-03-06T09:06:17.166Z,3.11
2023-03-06T09:08:44.699Z,3.18
2023-03-06T09:11:12.788Z,3.06
2023-03-06T09:13:39.693Z,3.30
2023-03-06T09:16:07.000Z,3.22
2023-03-06T09:18:33.697Z,3.16
2023-03-06T09:21:00.887Z,3.08
2023-03-06T09:23:27.716Z,3.22
2023-03-06T09:25:55.879Z,3.23
2023-03-06T09:28:22.899Z,3.42
2023-03-06T09:30:50.038Z,3.44
2023-03-06T09:33:17.150Z,3.63
2023-03-06T09:35:53.215Z,3.39
2023-03-06T09:38:21.950Z,3.53
2023-03-06T09:40:57.763Z,3.60
2023-03-06T09:43:40.440Z,3.67
2023-03-06T09:46:19.759Z,3.71
2023-03-06T09:49:01.693Z,3.64
2023-03-06T09:51:38.949Z,3.65
2023-03-06T09:54:13.445Z,3.71
2023-03-06T09:56:47.249Z,3.67
2023-03-06T09:59:17.458Z,3.46
2023-03-06T10:01:53.644Z,3.50
2023-03-06T10:04:33.281Z,3.40
2023-03-06T10:07:06.095Z,3.53
2023-03-06T10:09:45.346Z,3.61
2023-03-06T10:12:11.948Z,3.57
2023-03-06T10:14:49.126Z,3.72
2023-03-06T10:17:22.315Z,3.82
2023-03-06T10:19:49.456Z,4.04
2023-03-06T10:22:30.682Z,4.15
2023-03-06T10:25:12.439Z,4.43
2023-03-06T10:27:47.414Z,4.54
2023-03-06T10:30:14.559Z,4.73
2023-03-06T10:32:55.244Z,5.02
2023-03-06T10:35:30.529Z,4.85
2023-03-06T10:38:32.555Z,4.81
2023-03-06T10:41:22.516Z,4.77
2023-03-06T10:44:01.097Z,4.75
2023-03-06T10:46:30.613Z,4.85
2023-03-06T10:48:59.754Z,4.81
2023-03-06T10:51:27.623Z,4.97
2023-03-06T10:53:58.631Z,5.10
2023-03-06T10:56:33.028Z,4.96
2023-03-06T10:59:07.058Z,5.34
2023-03-06T11:01:34.683Z,5.59
2023-03-06T11:04:27.532Z,5.23
2023-03-06T11:07:15.926Z,5.31
2023-03-06T11:09:58.768Z,5.76
2023-03-06T11:12:28.694Z,5.93
2023-03-06T11:15:09.135Z,5.92
2023-03-06T11:17:47.574Z,6.06
2023-03-06T11:20:21.381Z,5.93
2023-03-06T11:22:54.928Z,5.90
2023-03-06T11:25:26.491Z,6.06
2023-03-06T11:28:13.736Z,5.58
2023-03-06T11:30:46.457Z,6.31
2023-03-06T11:33:46.457Z,6.60
2023-03-06T11:36:36.187Z,6.48
2023-03-06T11:39:14.528Z,6.20
2023-03-06T11:41:54.231Z,6.44
2023-03-06T11:44:47.827Z,6.32
2023-03-06T11:47:28.584Z,6.15
2023-03-06T11:50:04.316Z,6.34
2023-03-06T11:52:46.852Z,6.32
2023-03-06T11:55:17.485Z,6.05
2023-03-06T11:58:00.760Z,6.54
2023-03-06T12:00:43.460Z,7.20
2023-03-06T12:03:31.707Z,7.03
2023-03-06T12:06:04.693Z,6.82
2023-03-06T12:08:46.924Z,7.02
2023-03-06T12:11:44.248Z,6.69
2023-03-06T12:14:29.570Z,7.20
2023-03-06T12:17:06.979Z,6.92
2023-03-06T12:19:46.376Z,7.08
2023-03-06T12:22:29.114Z,7.74
2023-03-06T12:25:18.409Z,7.67
2023-03-06T12:28:03.340Z,8.26
2023-03-06T12:30:57.064Z,7.98
2023-03-06T12:33:46.906Z,7.95
2023-03-06T12:36:18.060Z,7.97
2023-03-06T12:39:15.873Z,8.71
2023-03-06T12:41:59.306Z,8.51
2023-03-06T12:44:34.958Z,8.06
2023-03-06T12:47:04.616Z,7.81
2023-03-06T12:49:34.630Z,8.51
2023-03-06T12:52:04.877Z,8.51
2023-03-06T12:54:36.398Z,9.10
2023-03-06T12:57:03.323Z,9.22
2023-03-06T12:59:44.468Z,9.63
2023-03-06T13:02:29.506Z,9.60
2023-03-06T13:05:17.369Z,9.39
2023-03-06T13:07:52.866Z,9.36
2023-03-06T13:10:30.381Z,9.13
2023-03-06T13:13:01.206Z,9.31
2023-03-06T13:15:33.833Z,9.06
2023-03-06T13:18:01.160Z,9.41
2023-03-06T13:20:36.993Z,8.73
2023-03-06T13:23:38.831Z,8.11
2023-03-06T13:26:11.867Z,8.06
2023-03-06T13:28:50.492Z,7.56
2023-03-06T13:31:28.460Z,7.47
2023-03-06T13:33:58.746Z,7.48
2023-03-06T13:36:39.424Z,7.52
2023-03-06T13:39:10.659Z,7.66
2023-03-06T13:42:00.576Z,7.11
2023-03-06T13:44:27.227Z,7.20
2023-03-06T13:47:05.120Z,6.96
2023-03-06T13:49:33.719Z,6.84
2023-03-06T13:52:11.116Z,6.61
2023-03-06T13:55:00.169Z,6.61
2023-03-06T13:57:48.606Z,6.48
2023-03-06T14:00:27.075Z,6.51
2023-03-06T14:03:15.554Z,6.48
2023-03-06T14:05:50.798Z,6.58
2023-03-06T14:08:23.740Z,6.55
2023-03-06T14:11:17.283Z,6.47
2023-03-06T14:13:49.817Z,6.08
2023-03-06T14:16:32.697Z,5.98
2023-03-06T14:19:04.728Z,6.03
2023-03-06T14:21:39.585Z,5.85
2023-03-06T14:24:06.408Z,5.80
2023-03-06T14:26:40.083Z,5.66
2023-03-06T14:29:22.352Z,5.75
2023-03-06T14:31:51.319Z,5.55
2023-03-06T14:34:21.181Z,5.48
2023-03-06T14:36:50.807Z,5.59
2023-03-06T14:39:24.452Z,5.50
2023-03-06T14:41:51.153Z,5.45
2023-03-06T14:44:24.116Z,5.39
2023-03-06T14:46:56.205Z,5.21
2023-03-06T14:49:25.407Z,5.19
2023-03-06T14:51:54.642Z,5.27
2023-03-06T14:54:33.703Z,5.23
2023-03-06T14:57:16.468Z,5.03
2023-03-06T14:59:59.160Z,5.08
2023-03-06T15:02:32.930Z,5.14
2023-03-06T15:05:05.507Z,5.20
2023-03-06T15:07:33.334Z,5.09
2023-03-06T15:10:01.060Z,5.14
2023-03-06T15:12:29.683Z,5.23
2023-03-06T15:14:59.017Z,5.09
2023-03-06T15:17:30.768Z,5.02
2023-03-06T15:20:01.042Z,4.93
2023-03-06T15:22:35.760Z,5.02
2023-03-06T15:25:27.396Z,4.88
2023-03-06T15:28:00.143Z,5.10
2023-03-06T15:30:28.862Z,5.01
2023-03-06T15:33:24.931Z,5.10
2023-03-06T15:36:02.266Z,4.91
2023-03-06T15:38:42.678Z,5.01
2023-03-06T15:41:38.334Z,5.06
2023-03-06T15:44:15.240Z,5.11
2023-03-06T15:46:42.236Z,5.12
2023-03-06T15:49:17.575Z,5.07
2023-03-06T15:51:44.653Z,5.02
2023-03-06T15:54:12.626Z,5.13
2023-03-06T15:56:42.926Z,5.04
2023-03-06T15:59:33.301Z,5.06
2023-03-06T16:02:04.034Z,5.02
2023-03-06T16:04:30.651Z,4.92
2023-03-06T16:06:57.384Z,4.91
2023-03-06T16:09:24.064Z,4.98
2023-03-06T16:11:50.781Z,4.75
2023-03-06T16:14:21.343Z,4.72
2023-03-06T16:16:49.347Z,4.64
2023-03-06T16:19:28.993Z,4.75
2023-03-06T16:21:56.676Z,4.81
2023-03-06T16:24:24.855Z,4.59
2023-03-06T16:26:53.096Z,4.71
2023-03-06T16:29:22.584Z,4.72
2023-03-06T16:31:49.626Z,4.58
2023-03-06T16:34:17.141Z,4.70
2023-03-06T16:36:43.707Z,4.46
2023-03-06T16:39:18.092Z,4.46
2023-03-06T16:41:45.987Z,4.41
2023-03-06T16:44:13.536Z,4.40
2023-03-06T16:46:42.831Z,4.42
2023-03-06T16:49:35.945Z,4.35
2023-03-06T16:52:04.638Z,4.33
2023-03-06T16:54:31.319Z,4.30
2023-03-06T16:56:58.121Z,4.29
2023-03-06T16:59:25.398Z,4.31
2023-03-06T17:01:52.553Z,4.23
2023-03-06T17:04:19.160Z,4.14
2023-03-06T17:06:45.852Z,4.17
2023-03-06T17:09:14.316Z,4.07
2023-03-06T17:11:43.121Z,4.04
2023-03-06T17:14:09.756Z,4.13
2023-03-06T17:16:40.280Z,4.11
2023-03-06T17:19:07.495Z,3.99
2023-03-06T17:21:35.511Z,3.97
2023-03-06T17:24:03.820Z,3.95
2023-03-06T17:26:30.841Z,3.93
2023-03-06T17:28:57.572Z,3.95
2023-03-06T17:31:26.797Z,3.94
2023-03-06T17:33:59.225Z,3.90
2023-03-06T17:36:30.877Z,3.92
2023-03-06T17:38:59.255Z,3.84
2023-03-06T17:41:26.417Z,3.81
2023-03-06T17:43:55.871Z,3.82
2023-03-06T17:46:22.600Z,3.86
2023-03-06T17:48:49.183Z,3.85
2023-03-06T17:51:15.783Z,3.78
2023-03-06T17:53:42.367Z,3.67
2023-03-06T17:56:12.592Z,3.64
2023-03-06T17:58:39.175Z,3.56
2023-03-06T18:01:14.527Z,3.67
2023-03-06T18:03:45.319Z,3.54
2023-03-06T18:06:12.356Z,3.58
2023-03-06T18:08:39.148Z,3.45
2023-03-06T18:11:08.013Z,3.45
2023-03-06T18:13:36.767Z,3.39
2023-03-06T18:16:04.391Z,3.24
2023-03-06T18:18:31.767Z,3.23
2023-03-06T18:21:00.870Z,3.11
2023-03-06T18:23:27.444Z,3.16
2023-03-06T18:26:05.684Z,3.18
2023-03-06T18:28:32.471Z,3.19
2023-03-06T18:30:58.989Z,3.13
2023-03-06T18:33:25.565Z,3.14
2023-03-06T18:35:52.316Z,3.18
2023-03-06T18:38:18.900Z,3.28
2023-03-06T18:40:46.244Z,3.43
2023-03-06T18:43:12.848Z,3.37
2023-03-06T18:45:39.476Z,3.36
2023-03-06T18:48:06.269Z,3.36
2023-03-06T18:50:34.659Z,3.36
2023-03-06T18:53:01.322Z,3.36
2023-03-06T18:55:27.984Z,3.30
2023-03-06T18:57:54.567Z,3.27
2023-03-06T19:00:21.527Z,3.20
2023-03-06T19:02:48.170Z,3.11
2023-03-06T19:05:14.803Z,3.12
2023-03-06T19:07:41.401Z,3.09
2023-03-06T19:10:08.624Z,2.90
2023-03-06T19:12:35.669Z,2.78
2023-03-06T19:15:03.556Z,2.84
2023-03-06T19:17:31.664Z,2.74
2023-03-06T19:19:58.241Z,2.77
2023-03-06T19:22:24.882Z,2.56
2023-03-06T19:24:51.549Z,2.48
2023-03-06T19:27:18.271Z,2.53
2023-03-06T19:29:44.921Z,2.49
2023-03-06T19:32:11.766Z,2.38
2023-03-06T19:34:38.553Z,2.38
2023-03-06T19:37:05.174Z,2.38
2023-03-06T19:39:31.776Z,2.39
2023-03-06T19:41:58.471Z,2.30
2023-03-06T19:44:25.198Z,2.31
2023-03-06T19:46:51.764Z,2.31
2023-03-06T19:49:21.807Z,2.30
2023-03-06T19:51:48.504Z,2.31
2023-03-06T19:54:15.138Z,2.30
2023-03-06T19:56:41.803Z,2.29
2023-03-06T19:59:08.364Z,2.24
2023-03-06T20:01:35.093Z,2.15
2023-03-06T20:04:01.993Z,2.09
2023-03-06T20:06:31.494Z,2.10
2023-03-06T20:08:58.578Z,2.22
2023-03-06T20:11:27.442Z,2.07
2023-03-06T20:13:54.329Z,2.06
2023-03-06T20:16:21.036Z,1.95
2023-03-06T20:18:47.718Z,1.92
2023-03-06T20:21:15.526Z,1.93
2023-03-06T20:23:43.484Z,1.99
2023-03-06T20:26:14.969Z,1.89
2023-03-06T20:28:42.558Z,2.03
2023-03-06T20:31:16.769Z,1.89
2023-03-06T20:33:48.668Z,1.82
2023-03-06T20:36:16.310Z,1.89
2023-03-06T20:38:43.604Z,1.85
2023-03-06T20:41:18.464Z,1.69
2023-03-06T20:43:45.249Z,1.71
2023-03-06T20:46:13.165Z,1.73
2023-03-06T20:48:40.982Z,1.82
2023-03-06T20:51:18.036Z,1.78
2023-03-06T20:53:45.960Z,1.67
2023-03-06T20:56:14.303Z,1.63
2023-03-06T20:58:40.993Z,1.60
2023-03-06T21:01:07.657Z,1.62
2023-03-06T21:03:34.228Z,1.68
2023-03-06T21:06:00.875Z,1.62
2023-03-06T21:08:27.452Z,1.57
2023-03-06T21:10:54.152Z,1.54
2023-03-06T21:13:22.091Z,1.52
2023-03-06T21:15:48.724Z,1.54
2023-03-06T21:18:15.357Z,1.62
2023-03-06T21:20:42.390Z,1.48
2023-03-06T21:23:09.354Z,1.49
2023-03-06T21:25:35.965Z,1.54
2023-03-06T21:28:02.714Z,1.48
2023-03-06T21:30:29.591Z,1.46
2023-03-06T21:32:56.349Z,1.52
2023-03-06T21:35:22.943Z,1.45
2023-03-06T21:37:49.574Z,1.44
2023-03-06T21:40:16.218Z,1.41
2023-03-06T21:42:43.081Z,1.56
2023-03-06T21:45:10.167Z,1.48
2023-03-06T21:47:38.844Z,1.43
2023-03-06T21:50:11.919Z,1.56
2023-03-06T21:52:38.583Z,1.57
2023-03-06T21:55:05.947Z,1.53
2023-03-06T21:57:32.612Z,1.65
2023-03-06T21:59:59.397Z,1.66
2023-03-06T22:02:26.060Z,1.58
2023-03-06T22:04:53.350Z,1.63
2023-03-06T22:07:20.301Z,1.56
2023-03-06T22:09:47.487Z,1.57
2023-03-06T22:12:14.524Z,1.62
2023-03-06T22:14:43.457Z,1.61
2023-03-06T22:17:10.018Z,1.63
2023-03-06T22:19:36.630Z,1.64
2023-03-06T22:22:03.955Z,1.66
2023-03-06T22:24:34.237Z,1.62
2023-03-06T22:27:00.866Z,1.60
2023-03-06T22:29:27.401Z,1.65
2023-03-06T22:31:54.057Z,1.60
2023-03-06T22:34:20.755Z,1.61
2023-03-06T22:36:47.310Z,1.61
2023-03-06T22:39:14.255Z,1.63
2023-03-06T22:41:41.335Z,1.65
2023-03-06T22:44:07.984Z,1.61
2023-03-06T22:46:34.765Z,1.53
2023-03-06T22:49:02.345Z,1.45
2023-03-06T22:51:29.706Z,1.50
2023-03-06T22:53:56.753Z,1.44
2023-03-06T22:56:23.776Z,1.49
2023-03-06T22:58:50.426Z,1.52
2023-03-06T23:01:22.659Z,1.48
2023-03-06T23:03:51.989Z,1.46
2023-03-06T23:06:24.736Z,1.45
2023-03-06T23:08:54.264Z,1.49
2023-03-06T23:11:21.906Z,1.57
2023-03-06T23:14:07.050Z,1.54
2023-03-06T23:16:52.318Z,1.58
2023-03-06T23:19:38.196Z,1.61
2023-03-06T23:22:23.316Z,1.57
2023-03-06T23:25:09.328Z,1.55
2023-03-06T23:27:36.466Z,1.59
2023-03-06T23:30:05.173Z,1.62
2023-03-06T23:32:33.357Z,1.62
2023-03-06T23:35:00.359Z,1.57
2023-03-06T23:37:27.317Z,1.61
2023-03-06T23:39:55.070Z,1.65
2023-03-06T23:42:22.688Z,1.63
2023-03-06T23:44:49.327Z,1.64
2023-03-06T23:47:17.260Z,1.66
2023-03-06T23:49:43.863Z,1.66
2023-03-06T23:52:10.405Z,1.65
2023-03-06T23:54:37.047Z,1.71
2023-03-06T23:57:03.839Z,1.68
2023-03-06T23:59:30.549Z,1.74
